Amy C. Mc Allister — WCZ9520 — position and weather

sailwx.info

Track history (hours):
 
Tides and Currents Weather Stations Pressure Air Temp Water Temp Dewpoint Dewpoint Depression Visibility Wind Speed Wind Dir Waves Ship Positions

Amy C. Mc Allister

Owner: MC ALLISTER TOWING & TRANSPORTATION INC, NEW YORK, NY. More information available from US FCC via Universal Licensing System and Coast Guard Vessel Documentation Center.

Last reported at 2017-Mar-28 22:33 UTC. Time now 2017-Mar-28 23:30 UTC.
Position N 40°38' W 074°03'.

; draft 4.9 m.

Type: Towing. MMSI: 366995040.

Date/timePositionNaut miles runAvg speedWind from/ knotsBaromVisibWave heightAir tempDewpointWater temp
2017-Mar-28 22:33N 40°38' W 074°03'5 5.2
2017-Mar-28 21:33N 40°38' W 074°10'1 1.2
2017-Mar-28 20:33N 40°39' W 074°09'0 0.3
2017-Mar-28 19:33N 40°40' W 074°09'0 0.0
2017-Mar-28 18:33N 40°40' W 074°09'0 0.0
2017-Mar-28 17:33N 40°40' W 074°09'0 0.0
2017-Mar-28 16:32N 40°40' W 074°09'0 0.0
2017-Mar-28 15:33N 40°40' W 074°09'0 0.0
2017-Mar-28 14:33N 40°40' W 074°09'0 0.0
2017-Mar-28 13:33N 40°40' W 074°09'3 2.9
2017-Mar-28 12:33N 40°39' W 074°05'2 2.0
2017-Mar-28 11:33N 40°38' W 074°03'5 5.2
2017-Mar-28 10:34N 40°38' W 074°10'0 0.0
2017-Mar-28 09:33N 40°38' W 074°10'0 0.0
2017-Mar-28 08:34N 40°38' W 074°10'0 0.0
2017-Mar-28 07:33N 40°38' W 074°10'0 0.0
2017-Mar-28 06:33N 40°38' W 074°10'0 0.0
2017-Mar-28 05:33N 40°38' W 074°10'0 0.0
2017-Mar-28 04:33N 40°38' W 074°10'0 0.0
2017-Mar-28 03:33N 40°38' W 074°10'0 0.0
2017-Mar-28 02:33N 40°38' W 074°10'0 0.0
2017-Mar-28 01:33N 40°38' W 074°10'0 0.0
2017-Mar-28 00:33N 40°38' W 074°10'0 0.0
2017-Mar-27 23:33N 40°38' W 074°10'3 3.2
2017-Mar-27 22:33N 40°41' W 074°08'2 1.8
2017-Mar-27 21:33N 40°40' W 074°09'1 1.4
2017-Mar-27 20:32N 40°41' W 074°08'1 0.8
2017-Mar-27 19:33N 40°42' W 074°08'2 2.1
2017-Mar-27 18:30N 40°40' W 074°09'0 0.0
2017-Mar-27 17:33N 40°40' W 074°09'0 0.1
2017-Mar-27 16:33N 40°39' W 074°09'5 5.3
2017-Mar-27 15:33N 40°35' W 074°12'3 1.0
2017-Mar-27 12:31N 40°33' W 074°15'4 4.4
2017-Mar-27 11:33N 40°36' W 074°12'5 4.6
2017-Mar-27 10:33N 40°39' W 074°07'3 3.0
2017-Mar-27 09:34N 40°39' W 074°03'1 1.0
2017-Mar-27 08:34N 40°40' W 074°04'0 0.0
2017-Mar-27 07:34N 40°40' W 074°04'0 0.0
2017-Mar-27 06:33N 40°40' W 074°04'1 1.1
2017-Mar-27 05:34N 40°39' W 074°04'4 3.7
2017-Mar-27 04:33N 40°41' W 074°08'1 0.8
2017-Mar-27 03:33N 40°42' W 074°08'4 3.7
2017-Mar-27 02:34N 40°39' W 074°05'1 0.9
2017-Mar-27 01:33N 40°40' W 074°03'1 0.9
2017-Mar-27 00:33N 40°39' W 074°03'1 1.5
2017-Mar-26 23:34N 40°40' W 074°04'3 3.1
2017-Mar-26 22:33N 40°41' W 074°08'3 2.6
2017-Mar-26 21:33N 40°39' W 074°09'4 4.0
2017-Mar-26 20:34N 40°40' W 074°04'1 0.6
2017-Mar-26 19:33N 40°40' W 074°05'0 0.0
2017-Mar-26 18:33N 40°40' W 074°05'0 0.0
2017-Mar-26 17:34N 40°40' W 074°05'2 1.5
2017-Mar-26 16:33N 40°39' W 074°06'2 2.4
2017-Mar-26 15:33N 40°38' W 074°03'2 2.5
2017-Mar-26 14:34N 40°40' W 074°05'0 0.0
2017-Mar-26 13:34N 40°40' W 074°05'0 0.0
2017-Mar-26 12:33N 40°40' W 074°05'0 0.2
2017-Mar-26 11:33N 40°40' W 074°05'2 2.1
2017-Mar-26 10:33N 40°38' W 074°03'2 2.3
2017-Mar-26 09:33N 40°40' W 074°05'0 0.0
2017-Mar-26 08:34N 40°40' W 074°05'0 0.0
2017-Mar-26 07:34N 40°40' W 074°05'0 0.0
2017-Mar-26 06:34N 40°40' W 074°05'0 0.0
2017-Mar-26 05:34N 40°40' W 074°05'0 0.0
2017-Mar-26 04:34N 40°40' W 074°05'0 0.0
2017-Mar-26 03:34N 40°40' W 074°05'0 0.0
2017-Mar-26 02:34N 40°40' W 074°05'0 0.0
2017-Mar-26 01:33N 40°40' W 074°05'0 0.0
2017-Mar-26 00:34N 40°40' W 074°05'0 0.0
2017-Mar-25 23:34N 40°40' W 074°05'0 0.0
2017-Mar-25 22:34N 40°40' W 074°05'1 0.7
2017-Mar-25 21:34N 40°40' W 074°04'0 0.0
2017-Mar-25 20:34N 40°40' W 074°04'0 0.0
2017-Mar-25 19:33N 40°40' W 074°04'0 0.0
2017-Mar-25 18:33N 40°40' W 074°04'0 0.3
2017-Mar-25 17:34N 40°40' W 074°04'5 4.5
2017-Mar-25 16:33N 40°42' W 073°59'1 1.3
2017-Mar-25 15:34N 40°42' W 074°00'0 0.1
2017-Mar-25 14:33N 40°42' W 074°00'0 0.0
2017-Mar-25 13:34N 40°42' W 074°00'3 2.7
2017-Mar-25 12:34N 40°40' W 074°03'4 4.0
2017-Mar-25 11:33N 40°39' W 074°08'1 1.3
2017-Mar-25 10:34N 40°38' W 074°10'0 0.0
2017-Mar-25 09:33N 40°38' W 074°10'0 0.0
2017-Mar-25 08:33N 40°38' W 074°10'0 0.0
2017-Mar-25 07:33N 40°38' W 074°10'0 0.0
2017-Mar-25 06:33N 40°38' W 074°10'0 0.0
2017-Mar-25 05:33N 40°38' W 074°10'0 0.0
2017-Mar-25 04:34N 40°38' W 074°10'0 0.0
2017-Mar-25 03:33N 40°38' W 074°10'0 0.0
2017-Mar-25 02:33N 40°38' W 074°10'0 0.0
2017-Mar-25 01:33N 40°38' W 074°10'0 0.0
2017-Mar-25 00:33N 40°38' W 074°10'0 0.0
2017-Mar-24 23:33N 40°38' W 074°10'0 0.0
2017-Mar-24 22:33N 40°38' W 074°10'0 0.0
2017-Mar-24 21:33N 40°38' W 074°10'0 0.0
2017-Mar-24 20:33N 40°38' W 074°10'0 0.0
2017-Mar-24 19:33N 40°38' W 074°10'0 0.0
2017-Mar-24 18:33N 40°38' W 074°10'0 0.0
2017-Mar-24 17:33N 40°38' W 074°10'0 0.0
2017-Mar-24 16:33N 40°38' W 074°10'0 0.0
2017-Mar-24 15:33N 40°38' W 074°10'0 0.0
2017-Mar-24 14:33N 40°38' W 074°10'4 3.9
2017-Mar-24 13:34N 40°39' W 074°05'4 4.2
2017-Mar-24 12:34N 40°41' W 074°00'0 0.1
2017-Mar-24 11:34N 40°41' W 074°00'6 6.4
2017-Mar-24 10:33N 40°38' W 074°08'1 0.6
2017-Mar-24 09:34N 40°39' W 074°07'3 3.4
2017-Mar-24 08:34N 40°40' W 074°03'3 2.5
2017-Mar-24 07:34N 40°41' W 074°00'5 5.1
2017-Mar-24 06:34N 40°39' W 074°06'2 2.3
2017-Mar-24 05:34N 40°40' W 074°09'0 0.1
2017-Mar-24 04:34N 40°40' W 074°09'2 1.8
2017-Mar-24 03:33N 40°38' W 074°10'0 0.0
2017-Mar-24 02:33N 40°38' W 074°10'0 0.0
2017-Mar-24 01:33N 40°38' W 074°10'0 0.0
2017-Mar-24 00:33N 40°38' W 074°10'0 0.0
2017-Mar-23 23:33N 40°38' W 074°10'0 0.0
2017-Mar-23 22:33N 40°38' W 074°10'0 0.0
2017-Mar-23 21:33N 40°38' W 074°10'0 0.0
2017-Mar-23 20:33N 40°38' W 074°10'0 0.0
2017-Mar-23 19:33N 40°38' W 074°10'0 0.0
2017-Mar-23 18:33N 40°38' W 074°10'0 0.0
2017-Mar-23 17:33N 40°38' W 074°10'0 0.0
2017-Mar-23 16:33N 40°38' W 074°10'0 0.0
2017-Mar-23 15:33N 40°38' W 074°10'0 0.0
2017-Mar-23 14:33N 40°38' W 074°10'0 0.0
2017-Mar-23 13:34N 40°38' W 074°10'0 0.0
2017-Mar-23 12:33N 40°38' W 074°10'0 0.0
2017-Mar-23 11:33N 40°38' W 074°10'0 0.0
2017-Mar-23 10:33N 40°38' W 074°10'0 0.0
2017-Mar-23 09:21N 40°38' W 074°10'0 0.0
2017-Mar-23 08:13N 40°38' W 074°10'0 0.0
2017-Mar-23 07:27N 40°38' W 074°10'0 0.0
2017-Mar-23 06:33N 40°38' W 074°10'0 0.0
2017-Mar-23 04:12N 40°38' W 074°10'0 0.0
2017-Mar-23 03:33N 40°38' W 074°10'0 0.0
2017-Mar-23 02:33N 40°38' W 074°10'0 0.0
2017-Mar-23 01:33N 40°38' W 074°10'0 0.0
2017-Mar-23 00:33N 40°38' W 074°10'0 0.0
2017-Mar-22 23:33N 40°38' W 074°10'0 0.0
2017-Mar-22 22:33N 40°38' W 074°10'1 1.0
2017-Mar-22 21:34N 40°39' W 074°09'2 1.5
2017-Mar-22 20:34N 40°41' W 074°09'2 2.3
2017-Mar-22 19:33N 40°38' W 074°10'0 0.0
2017-Mar-22 18:33N 40°38' W 074°10'0 0.0
2017-Mar-22 17:32N 40°38' W 074°10'0 0.0
2017-Mar-22 16:33N 40°38' W 074°10'0 0.0
2017-Mar-22 15:32N 40°38' W 074°10'0 0.0
2017-Mar-22 14:33N 40°38' W 074°10'0 0.0
2017-Mar-22 13:32N 40°38' W 074°10'0 0.0
2017-Mar-22 12:33N 40°38' W 074°10'0 0.0
2017-Mar-22 11:33N 40°38' W 074°10'0 0.0
2017-Mar-22 10:33N 40°38' W 074°10'0 0.0
2017-Mar-22 09:33N 40°38' W 074°10'0 0.0
2017-Mar-22 08:33N 40°38' W 074°10'0 0.0
2017-Mar-22 07:33N 40°38' W 074°10'0 0.0
2017-Mar-22 06:33N 40°38' W 074°10'0 0.0
2017-Mar-22 05:33N 40°38' W 074°10'0 0.0
2017-Mar-22 04:33N 40°38' W 074°10'0 0.0
2017-Mar-22 03:33N 40°38' W 074°10'0 0.0
2017-Mar-22 02:33N 40°38' W 074°10'0 0.0
2017-Mar-22 01:33N 40°38' W 074°10'0 0.0
2017-Mar-22 00:33N 40°38' W 074°10'0 0.0
2017-Mar-21 23:33N 40°38' W 074°10'0 0.0
2017-Mar-21 22:33N 40°38' W 074°10'0 0.0
2017-Mar-21 21:33N 40°38' W 074°10'0 0.0
2017-Mar-21 20:33N 40°38' W 074°10'0 0.0
2017-Mar-21 19:33N 40°38' W 074°10'0 0.0
2017-Mar-21 18:33N 40°38' W 074°10'0 0.0
2017-Mar-21 17:33N 40°38' W 074°10'0 0.0
2017-Mar-21 16:32N 40°38' W 074°10'0 0.0
2017-Mar-21 15:33N 40°38' W 074°10'0 0.0
2017-Mar-21 14:33N 40°38' W 074°10'0 0.0
2017-Mar-21 13:32N 40°38' W 074°10'0 0.0
2017-Mar-21 12:33N 40°38' W 074°10'0 0.0
2017-Mar-21 11:33N 40°38' W 074°10'0 0.0
2017-Mar-21 10:33N 40°38' W 074°10'0 0.0
2017-Mar-21 09:33N 40°38' W 074°10'0 0.0
2017-Mar-21 08:33N 40°38' W 074°10'0 0.0
2017-Mar-21 07:33N 40°38' W 074°10'0 0.0
2017-Mar-21 06:33N 40°38' W 074°10'0 0.0
2017-Mar-21 05:33N 40°38' W 074°10'0 0.0
2017-Mar-21 04:33N 40°38' W 074°10'0 0.0
2017-Mar-21 03:33N 40°38' W 074°10'0 0.0
2017-Mar-21 02:33N 40°38' W 074°10'0 0.0
2017-Mar-21 01:33N 40°38' W 074°10'0 0.0
2017-Mar-21 00:33N 40°38' W 074°10'0 0.0
2017-Mar-20 23:33N 40°38' W 074°10'0 0.0
2017-Mar-20 22:33N 40°38' W 074°10'0 0.0
2017-Mar-20 21:33N 40°38' W 074°10'0 0.0
2017-Mar-20 20:33N 40°38' W 074°10'0 0.0
2017-Mar-20 19:33N 40°38' W 074°10'0 0.0
2017-Mar-20 18:33N 40°38' W 074°10'0 0.0
2017-Mar-20 17:29N 40°38' W 074°10'0 0.0
2017-Mar-20 16:33N 40°38' W 074°10'0 0.0
2017-Mar-20 15:33N 40°38' W 074°10'0 0.0
2017-Mar-20 14:33N 40°38' W 074°10'0 0.0
2017-Mar-20 13:33N 40°38' W 074°10'0 0.0
2017-Mar-20 12:34N 40°38' W 074°10'0 0.0
2017-Mar-20 11:33N 40°38' W 074°10'0 0.0
2017-Mar-20 10:33N 40°38' W 074°10'0 0.0
2017-Mar-20 09:33N 40°38' W 074°10'0 0.0
2017-Mar-20 08:33N 40°38' W 074°10'0 0.0
2017-Mar-20 07:33N 40°38' W 074°10'0 0.0
2017-Mar-20 06:33N 40°38' W 074°10'0 0.0
2017-Mar-20 05:33N 40°38' W 074°10'0 0.0
2017-Mar-20 04:32N 40°38' W 074°10'0 0.0
2017-Mar-20 03:32N 40°38' W 074°10'0 0.0
2017-Mar-20 02:33N 40°38' W 074°10'0 0.0
2017-Mar-20 01:33N 40°38' W 074°10'0 0.0
2017-Mar-20 00:33N 40°38' W 074°10'0 0.0
2017-Mar-19 23:33N 40°38' W 074°10'0 0.0
2017-Mar-19 22:33N 40°38' W 074°10'0 0.0
2017-Mar-19 21:33N 40°38' W 074°10'0 0.0
2017-Mar-19 20:33N 40°38' W 074°10'0 0.0
2017-Mar-19 19:33N 40°38' W 074°10'0 0.0
2017-Mar-19 18:33N 40°38' W 074°10'0 0.0
2017-Mar-19 17:33N 40°38' W 074°10'0 0.0
2017-Mar-19 16:33N 40°38' W 074°10'0 0.0
2017-Mar-19 15:33N 40°38' W 074°10'0 0.0
2017-Mar-19 14:33N 40°38' W 074°10'0 0.0
2017-Mar-19 13:30N 40°38' W 074°10'0 0.0
2017-Mar-19 12:33N 40°38' W 074°10'0 0.0
2017-Mar-19 11:33N 40°38' W 074°10'0 0.0
2017-Mar-19 10:33N 40°38' W 074°10'0 0.0
2017-Mar-19 09:33N 40°38' W 074°10'0 0.0
2017-Mar-19 08:33N 40°38' W 074°10'0 0.0
2017-Mar-19 07:33N 40°38' W 074°10'0 0.0
2017-Mar-19 06:33N 40°38' W 074°10'0 0.0
2017-Mar-19 05:32N 40°38' W 074°10'0 0.0
2017-Mar-19 04:33N 40°38' W 074°10'0 0.0
2017-Mar-19 03:33N 40°38' W 074°10'0 0.0
2017-Mar-19 02:33N 40°38' W 074°10'0 0.0
2017-Mar-19 01:32N 40°38' W 074°10'0 0.0
2017-Mar-19 00:33N 40°38' W 074°10'0 0.0
2017-Mar-18 23:33N 40°38' W 074°10'  
Track history (hours):
 
Tides and Currents Weather Stations Pressure Air Temp Water Temp Dewpoint Dewpoint Depression Visibility Wind Speed Wind Dir Waves Ship Positions

Amy C. Mc Allister

Owner: MC ALLISTER TOWING & TRANSPORTATION INC, NEW YORK, NY. More information available from US FCC via Universal Licensing System and Coast Guard Vessel Documentation Center.

Last reported at 2017-Mar-28 22:33 UTC. Time now 2017-Mar-28 23:30 UTC.
Position N 40°38' W 074°03'.

; draft 4.9 m.

Type: Towing. MMSI: 366995040.

Date/timePositionNaut miles runAvg speedWind from/ knotsBaromVisibWave heightAir tempDewpointWater temp
2017-Mar-28 22:33N 40°38' W 074°03'5 5.2
2017-Mar-28 21:33N 40°38' W 074°10'1 1.2
2017-Mar-28 20:33N 40°39' W 074°09'0 0.3
2017-Mar-28 19:33N 40°40' W 074°09'0 0.0
2017-Mar-28 18:33N 40°40' W 074°09'0 0.0
2017-Mar-28 17:33N 40°40' W 074°09'0 0.0
2017-Mar-28 16:32N 40°40' W 074°09'0 0.0
2017-Mar-28 15:33N 40°40' W 074°09'0 0.0
2017-Mar-28 14:33N 40°40' W 074°09'0 0.0
2017-Mar-28 13:33N 40°40' W 074°09'3 2.9
2017-Mar-28 12:33N 40°39' W 074°05'2 2.0
2017-Mar-28 11:33N 40°38' W 074°03'5 5.2
2017-Mar-28 10:34N 40°38' W 074°10'0 0.0
2017-Mar-28 09:33N 40°38' W 074°10'0 0.0
2017-Mar-28 08:34N 40°38' W 074°10'0 0.0
2017-Mar-28 07:33N 40°38' W 074°10'0 0.0
2017-Mar-28 06:33N 40°38' W 074°10'0 0.0
2017-Mar-28 05:33N 40°38' W 074°10'0 0.0
2017-Mar-28 04:33N 40°38' W 074°10'0 0.0
2017-Mar-28 03:33N 40°38' W 074°10'0 0.0
2017-Mar-28 02:33N 40°38' W 074°10'0 0.0
2017-Mar-28 01:33N 40°38' W 074°10'0 0.0
2017-Mar-28 00:33N 40°38' W 074°10'0 0.0
2017-Mar-27 23:33N 40°38' W 074°10'3 3.2
2017-Mar-27 22:33N 40°41' W 074°08'2 1.8
2017-Mar-27 21:33N 40°40' W 074°09'1 1.4
2017-Mar-27 20:32N 40°41' W 074°08'1 0.8
2017-Mar-27 19:33N 40°42' W 074°08'2 2.1
2017-Mar-27 18:30N 40°40' W 074°09'0 0.0
2017-Mar-27 17:33N 40°40' W 074°09'0 0.1
2017-Mar-27 16:33N 40°39' W 074°09'5 5.3
2017-Mar-27 15:33N 40°35' W 074°12'3 1.0
2017-Mar-27 12:31N 40°33' W 074°15'4 4.4
2017-Mar-27 11:33N 40°36' W 074°12'5 4.6
2017-Mar-27 10:33N 40°39' W 074°07'3 3.0
2017-Mar-27 09:34N 40°39' W 074°03'1 1.0
2017-Mar-27 08:34N 40°40' W 074°04'0 0.0
2017-Mar-27 07:34N 40°40' W 074°04'0 0.0
2017-Mar-27 06:33N 40°40' W 074°04'1 1.1
2017-Mar-27 05:34N 40°39' W 074°04'4 3.7
2017-Mar-27 04:33N 40°41' W 074°08'1 0.8
2017-Mar-27 03:33N 40°42' W 074°08'4 3.7
2017-Mar-27 02:34N 40°39' W 074°05'1 0.9
2017-Mar-27 01:33N 40°40' W 074°03'1 0.9
2017-Mar-27 00:33N 40°39' W 074°03'1 1.5
2017-Mar-26 23:34N 40°40' W 074°04'3 3.1
2017-Mar-26 22:33N 40°41' W 074°08'3 2.6
2017-Mar-26 21:33N 40°39' W 074°09'4 4.0
2017-Mar-26 20:34N 40°40' W 074°04'1 0.6
2017-Mar-26 19:33N 40°40' W 074°05'0 0.0
2017-Mar-26 18:33N 40°40' W 074°05'0 0.0
2017-Mar-26 17:34N 40°40' W 074°05'2 1.5
2017-Mar-26 16:33N 40°39' W 074°06'2 2.4
2017-Mar-26 15:33N 40°38' W 074°03'2 2.5
2017-Mar-26 14:34N 40°40' W 074°05'0 0.0
2017-Mar-26 13:34N 40°40' W 074°05'0 0.0
2017-Mar-26 12:33N 40°40' W 074°05'0 0.2
2017-Mar-26 11:33N 40°40' W 074°05'2 2.1
2017-Mar-26 10:33N 40°38' W 074°03'2 2.3
2017-Mar-26 09:33N 40°40' W 074°05'0 0.0
2017-Mar-26 08:34N 40°40' W 074°05'0 0.0
2017-Mar-26 07:34N 40°40' W 074°05'0 0.0
2017-Mar-26 06:34N 40°40' W 074°05'0 0.0
2017-Mar-26 05:34N 40°40' W 074°05'0 0.0
2017-Mar-26 04:34N 40°40' W 074°05'0 0.0
2017-Mar-26 03:34N 40°40' W 074°05'0 0.0
2017-Mar-26 02:34N 40°40' W 074°05'0 0.0
2017-Mar-26 01:33N 40°40' W 074°05'0 0.0
2017-Mar-26 00:34N 40°40' W 074°05'0 0.0
2017-Mar-25 23:34N 40°40' W 074°05'0 0.0
2017-Mar-25 22:34N 40°40' W 074°05'1 0.7
2017-Mar-25 21:34N 40°40' W 074°04'0 0.0
2017-Mar-25 20:34N 40°40' W 074°04'0 0.0
2017-Mar-25 19:33N 40°40' W 074°04'0 0.0
2017-Mar-25 18:33N 40°40' W 074°04'0 0.3
2017-Mar-25 17:34N 40°40' W 074°04'5 4.5
2017-Mar-25 16:33N 40°42' W 073°59'1 1.3
2017-Mar-25 15:34N 40°42' W 074°00'0 0.1
2017-Mar-25 14:33N 40°42' W 074°00'0 0.0
2017-Mar-25 13:34N 40°42' W 074°00'3 2.7
2017-Mar-25 12:34N 40°40' W 074°03'4 4.0
2017-Mar-25 11:33N 40°39' W 074°08'1 1.3
2017-Mar-25 10:34N 40°38' W 074°10'0 0.0
2017-Mar-25 09:33N 40°38' W 074°10'0 0.0
2017-Mar-25 08:33N 40°38' W 074°10'0 0.0
2017-Mar-25 07:33N 40°38' W 074°10'0 0.0
2017-Mar-25 06:33N 40°38' W 074°10'0 0.0
2017-Mar-25 05:33N 40°38' W 074°10'0 0.0
2017-Mar-25 04:34N 40°38' W 074°10'0 0.0
2017-Mar-25 03:33N 40°38' W 074°10'0 0.0
2017-Mar-25 02:33N 40°38' W 074°10'0 0.0
2017-Mar-25 01:33N 40°38' W 074°10'0 0.0
2017-Mar-25 00:33N 40°38' W 074°10'0 0.0
2017-Mar-24 23:33N 40°38' W 074°10'0 0.0
2017-Mar-24 22:33N 40°38' W 074°10'0 0.0
2017-Mar-24 21:33N 40°38' W 074°10'0 0.0
2017-Mar-24 20:33N 40°38' W 074°10'0 0.0
2017-Mar-24 19:33N 40°38' W 074°10'0 0.0
2017-Mar-24 18:33N 40°38' W 074°10'0 0.0
2017-Mar-24 17:33N 40°38' W 074°10'0 0.0
2017-Mar-24 16:33N 40°38' W 074°10'0 0.0
2017-Mar-24 15:33N 40°38' W 074°10'0 0.0
2017-Mar-24 14:33N 40°38' W 074°10'4 3.9
2017-Mar-24 13:34N 40°39' W 074°05'4 4.2
2017-Mar-24 12:34N 40°41' W 074°00'0 0.1
2017-Mar-24 11:34N 40°41' W 074°00'6 6.4
2017-Mar-24 10:33N 40°38' W 074°08'1 0.6
2017-Mar-24 09:34N 40°39' W 074°07'3 3.4
2017-Mar-24 08:34N 40°40' W 074°03'3 2.5
2017-Mar-24 07:34N 40°41' W 074°00'5 5.1
2017-Mar-24 06:34N 40°39' W 074°06'2 2.3
2017-Mar-24 05:34N 40°40' W 074°09'0 0.1
2017-Mar-24 04:34N 40°40' W 074°09'2 1.8
2017-Mar-24 03:33N 40°38' W 074°10'0 0.0
2017-Mar-24 02:33N 40°38' W 074°10'0 0.0
2017-Mar-24 01:33N 40°38' W 074°10'0 0.0
2017-Mar-24 00:33N 40°38' W 074°10'0 0.0
2017-Mar-23 23:33N 40°38' W 074°10'0 0.0
2017-Mar-23 22:33N 40°38' W 074°10'0 0.0
2017-Mar-23 21:33N 40°38' W 074°10'0 0.0
2017-Mar-23 20:33N 40°38' W 074°10'0 0.0
2017-Mar-23 19:33N 40°38' W 074°10'0 0.0
2017-Mar-23 18:33N 40°38' W 074°10'0 0.0
2017-Mar-23 17:33N 40°38' W 074°10'0 0.0
2017-Mar-23 16:33N 40°38' W 074°10'0 0.0
2017-Mar-23 15:33N 40°38' W 074°10'0 0.0
2017-Mar-23 14:33N 40°38' W 074°10'0 0.0
2017-Mar-23 13:34N 40°38' W 074°10'0 0.0
2017-Mar-23 12:33N 40°38' W 074°10'0 0.0
2017-Mar-23 11:33N 40°38' W 074°10'0 0.0
2017-Mar-23 10:33N 40°38' W 074°10'0 0.0
2017-Mar-23 09:21N 40°38' W 074°10'0 0.0
2017-Mar-23 08:13N 40°38' W 074°10'0 0.0
2017-Mar-23 07:27N 40°38' W 074°10'0 0.0
2017-Mar-23 06:33N 40°38' W 074°10'0 0.0
2017-Mar-23 04:12N 40°38' W 074°10'0 0.0
2017-Mar-23 03:33N 40°38' W 074°10'0 0.0
2017-Mar-23 02:33N 40°38' W 074°10'0 0.0
2017-Mar-23 01:33N 40°38' W 074°10'0 0.0
2017-Mar-23 00:33N 40°38' W 074°10'0 0.0
2017-Mar-22 23:33N 40°38' W 074°10'0 0.0
2017-Mar-22 22:33N 40°38' W 074°10'1 1.0
2017-Mar-22 21:34N 40°39' W 074°09'2 1.5
2017-Mar-22 20:34N 40°41' W 074°09'2 2.3
2017-Mar-22 19:33N 40°38' W 074°10'0 0.0
2017-Mar-22 18:33N 40°38' W 074°10'0 0.0
2017-Mar-22 17:32N 40°38' W 074°10'0 0.0
2017-Mar-22 16:33N 40°38' W 074°10'0 0.0
2017-Mar-22 15:32N 40°38' W 074°10'0 0.0
2017-Mar-22 14:33N 40°38' W 074°10'0 0.0
2017-Mar-22 13:32N 40°38' W 074°10'0 0.0
2017-Mar-22 12:33N 40°38' W 074°10'0 0.0
2017-Mar-22 11:33N 40°38' W 074°10'0 0.0
2017-Mar-22 10:33N 40°38' W 074°10'0 0.0
2017-Mar-22 09:33N 40°38' W 074°10'0 0.0
2017-Mar-22 08:33N 40°38' W 074°10'0 0.0
2017-Mar-22 07:33N 40°38' W 074°10'0 0.0
2017-Mar-22 06:33N 40°38' W 074°10'0 0.0
2017-Mar-22 05:33N 40°38' W 074°10'0 0.0
2017-Mar-22 04:33N 40°38' W 074°10'0 0.0
2017-Mar-22 03:33N 40°38' W 074°10'0 0.0
2017-Mar-22 02:33N 40°38' W 074°10'0 0.0
2017-Mar-22 01:33N 40°38' W 074°10'0 0.0
2017-Mar-22 00:33N 40°38' W 074°10'0 0.0
2017-Mar-21 23:33N 40°38' W 074°10'0 0.0
2017-Mar-21 22:33N 40°38' W 074°10'0 0.0
2017-Mar-21 21:33N 40°38' W 074°10'0 0.0
2017-Mar-21 20:33N 40°38' W 074°10'0 0.0
2017-Mar-21 19:33N 40°38' W 074°10'0 0.0
2017-Mar-21 18:33N 40°38' W 074°10'0 0.0
2017-Mar-21 17:33N 40°38' W 074°10'0 0.0
2017-Mar-21 16:32N 40°38' W 074°10'0 0.0
2017-Mar-21 15:33N 40°38' W 074°10'0 0.0
2017-Mar-21 14:33N 40°38' W 074°10'0 0.0
2017-Mar-21 13:32N 40°38' W 074°10'0 0.0
2017-Mar-21 12:33N 40°38' W 074°10'0 0.0
2017-Mar-21 11:33N 40°38' W 074°10'0 0.0
2017-Mar-21 10:33N 40°38' W 074°10'0 0.0
2017-Mar-21 09:33N 40°38' W 074°10'0 0.0
2017-Mar-21 08:33N 40°38' W 074°10'0 0.0
2017-Mar-21 07:33N 40°38' W 074°10'0 0.0
2017-Mar-21 06:33N 40°38' W 074°10'0 0.0
2017-Mar-21 05:33N 40°38' W 074°10'0 0.0
2017-Mar-21 04:33N 40°38' W 074°10'0 0.0
2017-Mar-21 03:33N 40°38' W 074°10'0 0.0
2017-Mar-21 02:33N 40°38' W 074°10'0 0.0
2017-Mar-21 01:33N 40°38' W 074°10'0 0.0
2017-Mar-21 00:33N 40°38' W 074°10'0 0.0
2017-Mar-20 23:33N 40°38' W 074°10'0 0.0
2017-Mar-20 22:33N 40°38' W 074°10'0 0.0
2017-Mar-20 21:33N 40°38' W 074°10'0 0.0
2017-Mar-20 20:33N 40°38' W 074°10'0 0.0
2017-Mar-20 19:33N 40°38' W 074°10'0 0.0
2017-Mar-20 18:33N 40°38' W 074°10'0 0.0
2017-Mar-20 17:29N 40°38' W 074°10'0 0.0
2017-Mar-20 16:33N 40°38' W 074°10'0 0.0
2017-Mar-20 15:33N 40°38' W 074°10'0 0.0
2017-Mar-20 14:33N 40°38' W 074°10'0 0.0
2017-Mar-20 13:33N 40°38' W 074°10'0 0.0
2017-Mar-20 12:34N 40°38' W 074°10'0 0.0
2017-Mar-20 11:33N 40°38' W 074°10'0 0.0
2017-Mar-20 10:33N 40°38' W 074°10'0 0.0
2017-Mar-20 09:33N 40°38' W 074°10'0 0.0
2017-Mar-20 08:33N 40°38' W 074°10'0 0.0
2017-Mar-20 07:33N 40°38' W 074°10'0 0.0
2017-Mar-20 06:33N 40°38' W 074°10'0 0.0
2017-Mar-20 05:33N 40°38' W 074°10'0 0.0
2017-Mar-20 04:32N 40°38' W 074°10'0 0.0
2017-Mar-20 03:32N 40°38' W 074°10'0 0.0
2017-Mar-20 02:33N 40°38' W 074°10'0 0.0
2017-Mar-20 01:33N 40°38' W 074°10'0 0.0
2017-Mar-20 00:33N 40°38' W 074°10'0 0.0
2017-Mar-19 23:33N 40°38' W 074°10'0 0.0
2017-Mar-19 22:33N 40°38' W 074°10'0 0.0
2017-Mar-19 21:33N 40°38' W 074°10'0 0.0
2017-Mar-19 20:33N 40°38' W 074°10'0 0.0
2017-Mar-19 19:33N 40°38' W 074°10'0 0.0
2017-Mar-19 18:33N 40°38' W 074°10'0 0.0
2017-Mar-19 17:33N 40°38' W 074°10'0 0.0
2017-Mar-19 16:33N 40°38' W 074°10'0 0.0
2017-Mar-19 15:33N 40°38' W 074°10'0 0.0
2017-Mar-19 14:33N 40°38' W 074°10'0 0.0
2017-Mar-19 13:30N 40°38' W 074°10'0 0.0
2017-Mar-19 12:33N 40°38' W 074°10'0 0.0
2017-Mar-19 11:33N 40°38' W 074°10'0 0.0
2017-Mar-19 10:33N 40°38' W 074°10'0 0.0
2017-Mar-19 09:33N 40°38' W 074°10'0 0.0
2017-Mar-19 08:33N 40°38' W 074°10'0 0.0
2017-Mar-19 07:33N 40°38' W 074°10'0 0.0
2017-Mar-19 06:33N 40°38' W 074°10'0 0.0
2017-Mar-19 05:32N 40°38' W 074°10'0 0.0
2017-Mar-19 04:33N 40°38' W 074°10'0 0.0
2017-Mar-19 03:33N 40°38' W 074°10'0 0.0
2017-Mar-19 02:33N 40°38' W 074°10'0 0.0
2017-Mar-19 01:32N 40°38' W 074°10'0 0.0
2017-Mar-19 00:33N 40°38' W 074°10'0 0.0
2017-Mar-18 23:33N 40°38' W 074°10'  

Dump ship's entire track history